createdAt,value
2018-06-02T00:01:37.349Z,20.67
2018-06-02T00:04:03.516Z,20.73
2018-06-02T00:06:29.674Z,19.10
2018-06-02T00:08:55.865Z,19.47
2018-06-02T00:11:22.075Z,17.80
2018-06-02T00:13:48.181Z,15.80
2018-06-02T00:16:15.075Z,15.47
2018-06-02T00:18:41.250Z,14.20
2018-06-02T00:21:07.426Z,13.83
2018-06-02T00:23:33.595Z,12.70
2018-06-02T00:25:59.759Z,9.83
2018-06-02T00:28:25.981Z,9.20
2018-06-02T00:30:52.886Z,8.97
2018-06-02T00:33:19.034Z,8.50
2018-06-02T00:35:45.191Z,8.50
2018-06-02T00:38:11.349Z,8.27
2018-06-02T00:40:37.502Z,9.30
2018-06-02T00:43:04.422Z,9.17
2018-06-02T00:45:30.573Z,8.63
2018-06-02T00:47:56.739Z,9.57
2018-06-02T00:50:22.928Z,9.97
2018-06-02T00:52:49.076Z,10.13
2018-06-02T00:55:15.234Z,10.77
2018-06-02T00:57:41.412Z,11.13
2018-06-02T01:00:07.569Z,11.20
2018-06-02T01:02:33.734Z,12.70
2018-06-02T01:04:59.911Z,12.93
2018-06-02T01:07:26.059Z,13.07
2018-06-02T01:09:52.217Z,13.97
2018-06-02T01:12:18.385Z,13.90
2018-06-02T01:14:44.536Z,14.07
2018-06-02T01:17:10.686Z,15.10
2018-06-02T01:19:37.574Z,15.73
2018-06-02T01:22:03.736Z,15.00
2018-06-02T01:24:29.900Z,16.20
2018-06-02T01:26:56.066Z,16.10
2018-06-02T01:29:22.249Z,17.03
2018-06-02T01:31:48.393Z,16.47
2018-06-02T01:34:15.299Z,15.83
2018-06-02T01:36:41.464Z,17.93
2018-06-02T01:39:07.652Z,19.43
2018-06-02T01:41:33.815Z,18.83
2018-06-02T01:43:59.979Z,18.90
2018-06-02T01:46:26.862Z,18.83
2018-06-02T01:48:53.018Z,19.37
2018-06-02T01:51:19.171Z,18.63
2018-06-02T01:53:45.323Z,18.10
2018-06-02T01:56:11.508Z,17.73
2018-06-02T01:58:37.649Z,18.03
2018-06-02T02:01:03.796Z,17.93
2018-06-02T02:03:29.964Z,16.47
2018-06-02T02:05:56.109Z,17.33
2018-06-02T02:08:22.260Z,16.50
2018-06-02T02:10:48.412Z,18.00
2018-06-02T02:13:14.594Z,15.87
2018-06-02T02:15:40.749Z,16.07
2018-06-02T02:18:06.934Z,17.37
2018-06-02T02:20:33.082Z,17.20
2018-06-02T02:22:59.854Z,20.00
2018-06-02T02:25:26.027Z,20.67
2018-06-02T02:27:52.191Z,19.33
2018-06-02T02:30:19.111Z,19.93
2018-06-02T02:32:46.755Z,17.47
2018-06-02T02:35:12.953Z,16.63
2018-06-02T02:37:39.119Z,15.97
2018-06-02T02:40:05.292Z,15.70
2018-06-02T02:42:32.198Z,16.47
2018-06-02T02:44:58.385Z,16.33
2018-06-02T02:47:24.514Z,15.60
2018-06-02T02:49:50.660Z,15.73
2018-06-02T02:52:16.833Z,16.47
2018-06-02T02:54:42.984Z,15.80
2018-06-02T02:57:09.140Z,15.70
2018-06-02T02:59:35.307Z,17.60
2018-06-02T03:02:01.475Z,17.17
2018-06-02T03:04:27.606Z,16.73
2018-06-02T03:06:53.835Z,16.30
2018-06-02T03:09:20.028Z,15.40
2018-06-02T03:11:46.196Z,15.57
2018-06-02T03:14:12.339Z,15.40
2018-06-02T03:16:38.511Z,15.30
2018-06-02T03:19:04.694Z,14.90
2018-06-02T03:21:30.865Z,14.27
2018-06-02T03:23:57.018Z,16.10
2018-06-02T03:26:23.163Z,15.87
2018-06-02T03:28:49.330Z,17.53
2018-06-02T03:31:15.507Z,16.80
2018-06-02T03:33:41.678Z,17.17
2018-06-02T03:36:07.861Z,17.47
2018-06-02T03:38:34.788Z,18.10
2018-06-02T03:41:00.981Z,18.60
2018-06-02T03:43:27.114Z,19.77
2018-06-02T03:45:53.278Z,20.53
2018-06-02T03:48:19.445Z,20.80
2018-06-02T03:50:46.330Z,19.27
2018-06-02T03:53:12.468Z,20.33
2018-06-02T03:55:38.619Z,21.40
2018-06-02T03:58:04.791Z,20.20
2018-06-02T04:00:30.947Z,22.70
2018-06-02T04:02:57.103Z,23.03
2018-06-02T04:05:23.260Z,23.00
2018-06-02T04:07:49.422Z,23.77
2018-06-02T04:10:16.333Z,23.23
2018-06-02T04:12:44.008Z,23.10
2018-06-02T04:15:10.178Z,23.43
2018-06-02T04:17:36.332Z,23.43
2018-06-02T04:20:02.513Z,23.97
2018-06-02T04:22:28.689Z,24.70
2018-06-02T04:24:54.846Z,24.17
2018-06-02T04:27:21.010Z,22.40
2018-06-02T04:29:47.910Z,24.43
2018-06-02T04:32:14.074Z,23.47
2018-06-02T04:34:40.194Z,25.70
2018-06-02T04:37:06.355Z,25.00
2018-06-02T04:39:32.520Z,26.07
2018-06-02T04:41:59.407Z,25.90
2018-06-02T04:44:25.592Z,27.47
2018-06-02T04:46:51.724Z,27.70
2018-06-02T04:49:17.897Z,27.33
2018-06-02T04:51:44.075Z,28.40
2018-06-02T04:54:10.961Z,31.77
2018-06-02T04:56:37.112Z,31.80
2018-06-02T04:59:03.274Z,30.67
2018-06-02T05:01:29.414Z,30.70
2018-06-02T05:03:55.580Z,32.90
2018-06-02T05:06:21.726Z,33.00
2018-06-02T05:08:47.924Z,31.93
2018-06-02T05:11:14.834Z,33.93
2018-06-02T05:13:41.591Z,30.87
2018-06-02T05:16:07.870Z,34.10
2018-06-02T05:18:34.181Z,34.73
2018-06-02T05:21:00.465Z,33.43
2018-06-02T05:23:26.763Z,33.13
2018-06-02T05:25:52.966Z,32.07
2018-06-02T05:28:19.147Z,30.70
2018-06-02T05:30:45.311Z,31.17
2018-06-02T05:33:11.445Z,31.63
2018-06-02T05:35:37.583Z,30.27
2018-06-02T05:38:03.760Z,28.53
2018-06-02T05:40:29.988Z,31.83
2018-06-02T05:42:56.111Z,29.57
2018-06-02T05:45:22.261Z,32.77
2018-06-02T05:47:48.466Z,29.80
2018-06-02T05:50:15.668Z,30.47
2018-06-02T05:52:41.818Z,29.13
2018-06-02T05:55:07.982Z,31.70
2018-06-02T05:57:34.207Z,29.80
2018-06-02T06:00:00.449Z,30.10
2018-06-02T06:02:28.204Z,31.90
2018-06-02T06:04:54.395Z,32.83
2018-06-02T06:07:20.589Z,33.33
2018-06-02T06:09:46.743Z,32.17
2018-06-02T06:12:13.630Z,34.60
2018-06-02T06:14:39.819Z,33.33
2018-06-02T06:17:06.018Z,35.37
2018-06-02T06:19:32.220Z,35.47
2018-06-02T06:21:58.347Z,33.70
2018-06-02T06:24:24.522Z,34.37
2018-06-02T06:26:50.698Z,31.33
2018-06-02T06:29:16.864Z,29.37
2018-06-02T06:31:43.057Z,31.00
2018-06-02T06:34:09.228Z,30.67
2018-06-02T06:36:35.476Z,31.17
2018-06-02T06:39:01.696Z,29.57
2018-06-02T06:41:27.826Z,27.67
2018-06-02T06:43:53.986Z,28.27
2018-06-02T06:46:21.654Z,26.33
2018-06-02T06:48:49.332Z,25.40
2018-06-02T06:51:17.001Z,27.43
2018-06-02T06:53:43.943Z,27.23
2018-06-02T06:56:10.167Z,27.00
2018-06-02T06:58:37.836Z,27.63
2018-06-02T07:01:04.044Z,27.03
2018-06-02T07:03:30.196Z,25.83
2018-06-02T07:05:56.375Z,26.67
2018-06-02T07:08:23.287Z,26.33
2018-06-02T07:10:49.448Z,27.20
2018-06-02T07:13:15.614Z,27.67
2018-06-02T07:15:41.797Z,27.83
2018-06-02T07:18:07.948Z,29.67
2018-06-02T07:20:34.871Z,27.10
2018-06-02T07:23:01.047Z,26.90
2018-06-02T07:25:27.206Z,25.53
2018-06-02T07:27:53.416Z,24.93
2018-06-02T07:30:19.578Z,25.13
2018-06-02T07:32:45.759Z,24.53
2018-06-02T07:35:11.923Z,26.70
2018-06-02T07:37:38.100Z,24.53
2018-06-02T07:40:05.749Z,23.53
2018-06-02T07:42:31.930Z,23.97
2018-06-02T07:44:58.119Z,22.20
2018-06-02T07:47:25.048Z,23.43
2018-06-02T07:49:51.315Z,22.10
2018-06-02T07:52:17.402Z,22.43
2018-06-02T07:54:43.583Z,23.60
2018-06-02T07:57:09.738Z,21.80
2018-06-02T07:59:36.677Z,21.80
2018-06-02T08:02:02.896Z,22.47
2018-06-02T08:07:21.795Z,23.37
2018-06-02T08:09:48.019Z,26.37
2018-06-02T08:12:14.973Z,29.27
2018-06-02T08:14:41.187Z,30.13
2018-06-02T08:17:07.385Z,30.67
2018-06-02T08:19:33.569Z,28.63
2018-06-02T08:22:00.475Z,28.37
2018-06-02T08:24:27.470Z,33.80
2018-06-02T08:26:53.666Z,33.63
2018-06-02T08:29:19.876Z,36.33
2018-06-02T08:31:46.070Z,37.17
2018-06-02T08:34:12.236Z,36.47
2018-06-02T08:36:38.406Z,35.90
2018-06-02T08:39:04.652Z,34.77
2018-06-02T08:41:30.822Z,33.10
2018-06-02T08:43:57.020Z,39.63
2018-06-02T08:46:24.923Z,35.67
2018-06-02T08:48:51.242Z,39.00
2018-06-02T08:51:17.444Z,40.10
2018-06-02T08:53:43.677Z,39.23
2018-06-02T08:56:09.900Z,43.17
2018-06-02T08:58:36.064Z,41.90
2018-06-02T09:01:02.359Z,42.33
2018-06-02T09:03:28.574Z,41.57
2018-06-02T09:05:54.823Z,41.63
2018-06-02T09:08:20.989Z,45.23
2018-06-02T09:10:47.159Z,42.17
2018-06-02T09:13:13.340Z,43.17
2018-06-02T09:15:39.534Z,42.13
2018-06-02T09:18:05.726Z,42.17
2018-06-02T09:20:31.932Z,42.33
2018-06-02T09:22:58.118Z,41.00
2018-06-02T09:25:24.323Z,40.27
2018-06-02T09:27:50.553Z,40.23
2018-06-02T09:30:16.683Z,38.00
2018-06-02T09:32:42.885Z,39.03
2018-06-02T09:35:09.133Z,34.53
2018-06-02T09:37:36.866Z,35.43
2018-06-02T09:40:03.085Z,36.63
2018-06-02T09:42:29.281Z,35.80
2018-06-02T09:44:55.451Z,32.70
2018-06-02T09:47:21.653Z,34.03
2018-06-02T09:49:47.864Z,33.43
2018-06-02T09:52:14.121Z,32.07
2018-06-02T09:54:40.260Z,35.30
2018-06-02T09:57:08.076Z,30.03
2018-06-02T09:59:34.309Z,31.87
2018-06-02T10:02:00.664Z,24.87
2018-06-02T10:04:26.844Z,27.53
2018-06-02T10:06:53.055Z,31.57
2018-06-02T10:09:19.231Z,31.43
2018-06-02T10:11:45.529Z,29.37
2018-06-02T10:14:11.727Z,27.73
2018-06-02T10:16:37.934Z,31.43
2018-06-02T10:19:06.055Z,30.97
2018-06-02T10:21:32.429Z,30.83
2018-06-02T10:23:58.664Z,27.37
2018-06-02T10:26:24.871Z,29.90
2018-06-02T10:28:51.091Z,28.43
2018-06-02T10:31:17.561Z,29.47
2018-06-02T10:33:44.538Z,29.70
2018-06-02T10:36:10.758Z,28.47
2018-06-02T10:38:36.979Z,31.70
2018-06-02T10:41:03.227Z,32.30
2018-06-02T10:43:30.286Z,32.57
2018-06-02T10:45:57.214Z,29.77
2018-06-02T10:48:23.400Z,26.73
2018-06-02T10:50:49.606Z,28.30
2018-06-02T10:53:15.863Z,25.83
2018-06-02T10:55:42.092Z,25.50
2018-06-02T10:58:08.300Z,26.10
2018-06-02T11:00:35.235Z,24.80
2018-06-02T11:03:01.467Z,23.67
2018-06-02T11:05:27.679Z,24.50
2018-06-02T11:07:53.901Z,25.13
2018-06-02T11:10:20.093Z,23.83
2018-06-02T11:12:46.309Z,21.30
2018-06-02T11:15:13.291Z,19.63
2018-06-02T11:17:39.508Z,19.10
2018-06-02T11:20:06.484Z,20.00
2018-06-02T11:22:32.761Z,18.43
2018-06-02T11:24:59.002Z,17.10
2018-06-02T11:27:25.232Z,17.07
2018-06-02T11:29:52.261Z,17.53
2018-06-02T11:32:18.475Z,16.53
2018-06-02T11:34:44.763Z,17.27
2018-06-02T11:37:10.993Z,16.37
2018-06-02T11:39:37.196Z,14.57
2018-06-02T11:42:03.435Z,17.20
2018-06-02T11:44:29.698Z,16.03
2018-06-02T11:46:56.691Z,16.60
2018-06-02T11:49:22.906Z,17.77
2018-06-02T11:51:49.177Z,17.43
2018-06-02T11:54:15.420Z,16.93
2018-06-02T11:56:41.726Z,16.47
2018-06-02T11:59:07.958Z,15.87
2018-06-02T12:01:34.247Z,16.30
2018-06-02T12:04:00.432Z,17.60
2018-06-02T12:06:26.650Z,16.03
2018-06-02T12:08:52.866Z,16.33
2018-06-02T12:11:19.774Z,15.57
2018-06-02T12:13:45.990Z,14.03
2018-06-02T12:16:12.222Z,14.10
2018-06-02T12:18:38.409Z,13.93
2018-06-02T12:21:04.621Z,13.97
2018-06-02T12:23:30.814Z,13.87
2018-06-02T12:25:57.013Z,13.27
2018-06-02T12:28:23.950Z,12.90
2018-06-02T12:30:50.118Z,13.43
2018-06-02T12:33:16.330Z,13.70
2018-06-02T12:35:43.369Z,13.67
2018-06-02T12:38:10.404Z,13.67
2018-06-02T12:40:37.758Z,13.80
2018-06-02T12:43:03.975Z,14.60
2018-06-02T12:45:30.174Z,13.93
2018-06-02T12:47:56.428Z,13.43
2018-06-02T12:50:22.637Z,12.63
2018-06-02T12:52:48.864Z,14.00
2018-06-02T12:57:45.609Z,13.80
2018-06-02T13:00:11.818Z,13.43
2018-06-02T13:02:38.067Z,14.20
2018-06-02T13:05:04.326Z,14.20
2018-06-02T13:07:31.278Z,14.43
2018-06-02T13:09:57.467Z,13.67
2018-06-02T13:12:23.671Z,14.00
2018-06-02T13:14:49.830Z,13.17
2018-06-02T13:17:15.974Z,13.07
2018-06-02T13:19:42.308Z,10.57
2018-06-02T13:22:08.504Z,12.27
2018-06-02T13:24:34.735Z,12.13
2018-06-02T13:27:00.964Z,11.63
2018-06-02T13:29:27.157Z,12.37
2018-06-02T13:31:53.349Z,11.43
2018-06-02T13:34:19.522Z,11.93
2018-06-02T13:36:46.724Z,11.37
2018-06-02T13:39:13.000Z,11.17
2018-06-02T13:41:39.229Z,11.53
2018-06-02T13:44:05.575Z,10.27
2018-06-02T13:46:31.764Z,11.30
2018-06-02T13:48:57.949Z,11.67
2018-06-02T13:51:25.683Z,11.70
2018-06-02T13:53:51.851Z,12.50
2018-06-02T13:56:18.044Z,11.90
2018-06-02T13:58:44.211Z,11.53
2018-06-02T14:01:10.386Z,11.23
2018-06-02T14:03:37.333Z,12.33
2018-06-02T14:06:03.596Z,12.13
2018-06-02T14:08:29.830Z,10.53
2018-06-02T14:10:56.191Z,10.70
2018-06-02T14:13:23.109Z,11.40
2018-06-02T14:15:49.428Z,11.80
2018-06-02T14:18:15.652Z,11.17
2018-06-02T14:20:42.574Z,12.53
2018-06-02T14:23:08.764Z,11.43
2018-06-02T14:25:34.922Z,11.90
2018-06-02T14:28:01.080Z,11.90
2018-06-02T14:30:28.089Z,11.50
2018-06-02T14:32:54.339Z,12.63
2018-06-02T14:35:20.523Z,12.67
2018-06-02T14:37:46.685Z,14.67
2018-06-02T14:40:12.986Z,15.87
2018-06-02T14:42:39.866Z,16.47
2018-06-02T14:45:06.014Z,15.73
2018-06-02T14:47:32.177Z,15.77
2018-06-02T14:49:58.328Z,17.07
2018-06-02T14:52:24.478Z,16.27
2018-06-02T14:54:50.665Z,17.27
2018-06-02T14:57:16.828Z,17.00
2018-06-02T14:59:43.729Z,17.83
2018-06-02T15:02:09.909Z,17.53
2018-06-02T15:04:36.075Z,18.10
2018-06-02T15:07:02.253Z,19.17
2018-06-02T15:09:28.456Z,18.30
2018-06-02T15:11:54.608Z,20.73
2018-06-02T15:14:21.061Z,19.57
2018-06-02T15:16:49.359Z,18.50
2018-06-02T15:19:16.293Z,19.73
2018-06-02T15:21:43.367Z,18.87
2018-06-02T15:24:09.561Z,18.77
2018-06-02T15:26:35.842Z,20.93
2018-06-02T15:29:02.022Z,17.77
2018-06-02T15:31:28.209Z,19.40
2018-06-02T15:33:54.395Z,18.80
2018-06-02T15:36:20.590Z,18.27
2018-06-02T15:38:46.758Z,17.70
2018-06-02T15:41:12.948Z,17.97
2018-06-02T15:43:39.111Z,19.40
2018-06-02T15:46:05.326Z,17.73
2018-06-02T15:48:31.565Z,19.00
2018-06-02T15:50:57.757Z,19.50
2018-06-02T15:53:23.992Z,19.90
2018-06-02T15:55:50.915Z,20.70
2018-06-02T15:58:17.089Z,21.20
2018-06-02T16:00:43.580Z,20.43
2018-06-02T16:03:09.756Z,21.43
2018-06-02T16:05:35.975Z,22.43
2018-06-02T16:08:02.164Z,22.00
2018-06-02T16:10:28.400Z,20.93
2018-06-02T16:12:54.621Z,23.90
2018-06-02T16:15:20.828Z,22.73
2018-06-02T16:17:47.006Z,22.27
2018-06-02T16:20:13.159Z,21.57
2018-06-02T16:22:40.786Z,21.17
2018-06-02T16:25:07.029Z,18.47
2018-06-02T16:27:33.236Z,19.10
2018-06-02T16:29:59.409Z,20.20
2018-06-02T16:32:25.556Z,20.23
2018-06-02T16:34:51.691Z,20.90
2018-06-02T16:37:17.901Z,20.23
2018-06-02T16:39:44.076Z,19.30
2018-06-02T16:42:10.251Z,20.43
2018-06-02T16:44:36.412Z,19.97
2018-06-02T16:47:02.611Z,20.37
2018-06-02T16:49:28.785Z,20.33
2018-06-02T16:51:54.956Z,21.00
2018-06-02T16:54:21.097Z,20.60
2018-06-02T16:56:47.258Z,20.03
2018-06-02T16:59:13.491Z,21.03
2018-06-02T17:01:40.693Z,20.33
2018-06-02T17:04:07.616Z,20.00
2018-06-02T17:06:33.837Z,20.40
2018-06-02T17:09:00.582Z,21.00
2018-06-02T17:11:26.780Z,21.47
2018-06-02T17:13:53.707Z,20.93
2018-06-02T17:16:20.755Z,21.37
2018-06-02T17:18:47.983Z,22.50
2018-06-02T17:21:15.274Z,23.53
2018-06-02T17:23:43.170Z,24.43
2018-06-02T17:26:10.316Z,22.87
2018-06-02T17:28:36.635Z,22.60
2018-06-02T17:31:02.907Z,23.60
2018-06-02T17:33:30.012Z,22.77
2018-06-02T17:35:56.263Z,22.40
2018-06-02T17:38:23.168Z,23.47
2018-06-02T17:40:49.407Z,23.30
2018-06-02T17:43:17.480Z,21.17
2018-06-02T17:45:43.665Z,21.43
2018-06-02T17:48:09.917Z,21.30
2018-06-02T17:50:36.057Z,22.03
2018-06-02T17:53:02.213Z,22.80
2018-06-02T17:55:28.342Z,23.20
2018-06-02T17:57:54.506Z,22.70
2018-06-02T18:00:20.647Z,22.73
2018-06-02T18:02:46.812Z,24.07
2018-06-02T18:05:13.677Z,21.77
2018-06-02T18:07:39.787Z,22.00
2018-06-02T18:10:05.937Z,20.80
2018-06-02T18:12:32.076Z,20.63
2018-06-02T18:14:58.201Z,18.90
2018-06-02T18:17:24.380Z,20.67
2018-06-02T18:19:50.530Z,19.20
2018-06-02T18:22:16.711Z,20.23
2018-06-02T18:24:42.850Z,20.23
2018-06-02T18:27:08.999Z,18.67
2018-06-02T18:29:35.114Z,21.83
2018-06-02T18:32:01.255Z,19.70
2018-06-02T18:34:27.413Z,21.03
2018-06-02T18:36:53.565Z,21.37
2018-06-02T18:39:20.441Z,21.30
2018-06-02T18:41:46.594Z,21.63
2018-06-02T18:44:13.518Z,21.50
2018-06-02T18:46:39.649Z,21.27
2018-06-02T18:49:05.805Z,22.60
2018-06-02T18:51:31.964Z,22.97
2018-06-02T18:53:58.155Z,24.50
2018-06-02T18:56:24.319Z,22.63
2018-06-02T18:58:50.462Z,24.30
2018-06-02T19:01:16.626Z,23.90
2018-06-02T19:03:42.760Z,23.77
2018-06-02T19:06:08.931Z,25.30
2018-06-02T19:08:35.109Z,25.43
2018-06-02T19:11:01.315Z,25.73
2018-06-02T19:13:27.453Z,24.23
2018-06-02T19:15:53.642Z,25.90
2018-06-02T19:18:19.899Z,25.83
2018-06-02T19:20:46.094Z,25.47
2018-06-02T19:23:12.973Z,25.63
2018-06-02T19:25:39.137Z,24.70
2018-06-02T19:28:05.647Z,26.00
2018-06-02T19:30:31.824Z,27.00
2018-06-02T19:32:57.967Z,24.33
2018-06-02T19:35:24.878Z,26.70
2018-06-02T19:37:51.018Z,33.03
2018-06-02T19:40:18.036Z,27.37
2018-06-02T19:42:44.203Z,23.50
2018-06-02T19:45:10.442Z,24.87
2018-06-02T19:47:36.654Z,25.50
2018-06-02T19:50:02.830Z,26.20
2018-06-02T19:52:29.132Z,25.67
2018-06-02T19:54:58.636Z,36.40
2018-06-02T19:57:24.787Z,27.60
2018-06-02T19:59:51.914Z,29.00
2018-06-02T20:02:19.130Z,26.57
2018-06-02T20:04:45.295Z,26.10
2018-06-02T20:07:11.455Z,26.60
2018-06-02T20:09:37.628Z,28.03
2018-06-02T20:12:03.779Z,25.87
2018-06-02T20:14:29.910Z,25.50
2018-06-02T20:16:56.096Z,25.97
2018-06-02T20:19:22.272Z,25.67
2018-06-02T20:21:48.428Z,27.30
2018-06-02T20:24:14.623Z,27.00
2018-06-02T20:26:40.896Z,27.50
2018-06-02T20:29:07.080Z,27.10
2018-06-02T20:31:33.279Z,27.80
2018-06-02T20:33:59.396Z,27.77
2018-06-02T20:36:25.516Z,29.13
2018-06-02T20:38:51.685Z,28.80
2018-06-02T20:41:17.869Z,29.07
2018-06-02T20:43:44.204Z,29.60
2018-06-02T20:46:10.359Z,29.30
2018-06-02T20:48:37.231Z,28.87
2018-06-02T20:51:03.423Z,28.57
2018-06-02T20:53:29.599Z,28.70
2018-06-02T20:55:55.756Z,28.77
2018-06-02T20:58:21.936Z,29.87
2018-06-02T21:00:48.117Z,30.53
2018-06-02T21:03:15.712Z,29.43
2018-06-02T21:05:41.907Z,28.93
2018-06-02T21:08:08.074Z,32.10
2018-06-02T21:10:34.250Z,29.63
2018-06-02T21:13:00.366Z,30.63
2018-06-02T21:15:26.486Z,30.40
2018-06-02T21:17:52.631Z,29.37
2018-06-02T21:20:18.803Z,31.03
2018-06-02T21:22:45.708Z,31.20
2018-06-02T21:25:11.856Z,31.33
2018-06-02T21:27:38.007Z,33.07
2018-06-02T21:30:04.248Z,31.93
2018-06-02T21:32:31.181Z,31.90
2018-06-02T21:34:57.338Z,32.03
2018-06-02T21:37:23.503Z,30.50
2018-06-02T21:39:49.696Z,31.97
2018-06-02T21:42:15.835Z,32.13
2018-06-02T21:44:42.699Z,33.40
2018-06-02T21:47:08.846Z,33.13
2018-06-02T21:49:35.012Z,32.27
2018-06-02T21:55:24.048Z,33.23
2018-06-02T21:57:51.739Z,32.83
2018-06-02T22:00:19.430Z,33.20
2018-06-02T22:02:47.404Z,32.83
2018-06-02T22:05:15.061Z,32.63
2018-06-02T22:07:42.763Z,32.63
2018-06-02T22:10:10.479Z,32.63
2018-06-02T22:12:38.223Z,33.40
2018-06-02T22:15:05.986Z,33.80
2018-06-02T22:17:33.662Z,32.77
2018-06-02T22:20:01.359Z,32.33
2018-06-02T22:22:29.006Z,32.20
2018-06-02T22:24:56.976Z,32.97
2018-06-02T22:27:24.662Z,32.47
2018-06-02T22:29:52.318Z,33.77
2018-06-02T22:32:19.999Z,33.47
2018-06-02T22:34:47.733Z,34.30
2018-06-02T22:37:15.377Z,33.77
2018-06-02T22:39:43.040Z,31.83
2018-06-02T22:42:10.730Z,34.10
2018-06-02T22:44:38.375Z,34.10
2018-06-02T22:47:06.021Z,34.23
2018-06-02T22:49:33.692Z,32.90
2018-06-02T22:52:01.372Z,32.47
2018-06-02T22:54:29.149Z,33.90
2018-06-02T22:56:57.204Z,34.27
2018-06-02T22:59:25.077Z,35.20
2018-06-02T23:01:52.840Z,33.43
2018-06-02T23:04:20.495Z,33.60
2018-06-02T23:06:48.273Z,34.53
2018-06-02T23:09:15.946Z,36.37
2018-06-02T23:11:43.594Z,36.17
2018-06-02T23:14:11.250Z,36.13
2018-06-02T23:16:38.928Z,36.73
2018-06-02T23:19:07.178Z,35.50
2018-06-02T23:21:42.348Z,36.83
2018-06-02T23:24:09.942Z,35.43
2018-06-02T23:26:37.578Z,36.10
2018-06-02T23:29:05.219Z,36.87
2018-06-02T23:31:32.859Z,34.97
2018-06-02T23:34:00.441Z,36.00
2018-06-02T23:36:28.060Z,36.97
2018-06-02T23:38:55.702Z,36.30
2018-06-02T23:41:23.374Z,34.63
2018-06-02T23:43:51.018Z,35.70
2018-06-02T23:46:18.638Z,35.50
2018-06-02T23:48:46.268Z,37.43
2018-06-02T23:51:13.898Z,37.93
2018-06-02T23:53:41.507Z,37.33
2018-06-02T23:56:09.118Z,35.43
2018-06-02T23:58:36.770Z,36.43
